Time;durP1;ratioP1;P1;durP2;ratioP2;P2;SDS_P1;SDS_P2;PMS_P1;PMS_P2;Temp;Humidity;BMP_temperature;BMP_pressure;BME280_temperature;BME280_humidity;BME280_pressure;Samples;Min_cycle;Max_cycle;Signal;HPM_P1;HPM_P2
2023/06/28 00:02:12;;;;;;;8.07;1.13;;;19.10;80.40;;;;;;5074250;28;20437;-79
2023/06/28 00:04:47;;;;;;;0.80;0.80;;;19.10;80.30;;;;;;5074317;28;20414;-79
2023/06/28 00:07:16;;;;;;;1.53;1.00;;;19.10;80.10;;;;;;5073752;28;20491;-79
2023/06/28 00:09:44;;;;;;;2.70;0.90;;;19.10;80.00;;;;;;5073791;28;20952;-79
2023/06/28 00:12:14;;;;;;;0.90;0.90;;;19.00;80.40;;;;;;5073665;28;20461;-79
2023/06/28 00:14:43;;;;;;;0.70;0.60;;;19.00;80.50;;;;;;5074024;28;20527;-79
2023/06/28 00:17:11;;;;;;;1.43;1.07;;;19.00;80.20;;;;;;5073907;28;20535;-79
2023/06/28 00:19:47;;;;;;;0.70;0.70;;;19.00;80.30;;;;;;5073496;28;20551;-79
2023/06/28 00:22:22;;;;;;;1.83;0.90;;;19.00;80.70;;;;;;5073442;28;20488;-79
2023/06/28 00:24:50;;;;;;;0.80;0.70;;;19.00;81.00;;;;;;5073545;28;20440;-79
2023/06/28 00:27:28;;;;;;;0.87;0.80;;;19.00;80.80;;;;;;5073321;28;20484;-79
2023/06/28 00:30:00;;;;;;;1.37;0.60;;;19.00;81.00;;;;;;5073447;28;20451;-79
2023/06/28 00:32:36;;;;;;;2.10;0.70;;;19.00;80.50;;;;;;5073462;28;20482;-79
2023/06/28 00:35:08;;;;;;;0.77;0.70;;;19.00;81.20;;;;;;5073399;28;20555;-79
2023/06/28 00:37:44;;;;;;;3.53;1.10;;;18.90;80.40;;;;;;5074025;28;20464;-79
2023/06/28 00:40:18;;;;;;;0.70;0.70;;;18.90;80.70;;;;;;5073281;28;20429;-79
2023/06/28 00:42:47;;;;;;;0.63;0.63;;;18.90;80.80;;;;;;5073312;28;20444;-79
2023/06/28 00:45:18;;;;;;;0.93;0.80;;;18.90;81.00;;;;;;5073263;28;20445;-79
2023/06/28 00:47:48;;;;;;;0.60;0.60;;;18.90;81.40;;;;;;5073469;28;20460;-79
2023/06/28 00:50:21;;;;;;;1.07;0.90;;;18.90;81.50;;;;;;5073239;28;20432;-79
2023/06/28 00:52:55;;;;;;;5.93;1.00;;;18.90;82.20;;;;;;5073328;28;20448;-79
2023/06/28 00:55:26;;;;;;;0.90;0.70;;;18.90;82.10;;;;;;5072525;28;20428;-79
2023/06/28 00:57:56;;;;;;;1.40;1.30;;;18.90;82.00;;;;;;5073125;28;20461;-79
2023/06/28 01:00:26;;;;;;;0.77;0.73;;;18.80;81.90;;;;;;5073109;28;20844;-79
2023/06/28 01:02:56;;;;;;;2.73;0.80;;;18.80;82.50;;;;;;5073038;28;20445;-79
2023/06/28 01:05:25;;;;;;;2.60;0.83;;;18.80;82.50;;;;;;5073302;28;20517;-79
2023/06/28 01:07:58;;;;;;;2.43;0.90;;;18.80;82.50;;;;;;5073243;28;20465;-79
2023/06/28 01:10:30;;;;;;;1.40;0.70;;;18.80;82.80;;;;;;5073015;28;20512;-79
2023/06/28 01:12:59;;;;;;;1.30;0.70;;;18.80;82.70;;;;;;5072977;28;20540;-79
2023/06/28 01:15:32;;;;;;;2.67;0.97;;;18.80;82.70;;;;;;5073140;28;20445;-79
2023/06/28 01:18:03;;;;;;;1.27;0.90;;;18.80;82.80;;;;;;5072851;28;20464;-79
2023/06/28 01:20:31;;;;;;;0.80;0.77;;;18.80;82.90;;;;;;5073153;28;20444;-79
2023/06/28 01:23:10;;;;;;;0.60;0.60;;;18.80;83.30;;;;;;5072681;28;20489;-79
2023/06/28 01:25:39;;;;;;;1.43;0.60;;;18.80;83.10;;;;;;5072843;28;20455;-79
2023/06/28 01:28:07;;;;;;;1.27;0.80;;;18.80;83.80;;;;;;5072710;28;20560;-79
2023/06/28 01:30:37;;;;;;;0.80;0.80;;;18.70;83.20;;;;;;5072772;28;20492;-79
2023/06/28 01:33:07;;;;;;;1.37;0.90;;;18.70;83.30;;;;;;5072754;28;20510;-79
2023/06/28 01:35:42;;;;;;;1.47;1.00;;;18.70;83.80;;;;;;5072752;28;20433;-79
2023/06/28 01:38:14;;;;;;;0.67;0.67;;;18.70;83.40;;;;;;5072668;28;20509;-79
2023/06/28 01:40:48;;;;;;;1.17;1.07;;;18.70;83.40;;;;;;5073147;28;20516;-79
2023/06/28 01:43:21;;;;;;;1.37;0.60;;;18.60;83.40;;;;;;5073010;28;20433;-79
2023/06/28 01:45:51;;;;;;;1.00;1.00;;;18.70;83.40;;;;;;5072946;28;20452;-79
2023/06/28 01:48:28;;;;;;;2.03;0.83;;;18.60;83.40;;;;;;5072550;28;20461;-79
2023/06/28 01:51:05;;;;;;;1.60;0.90;;;18.60;84.20;;;;;;5072618;28;20932;-79
2023/06/28 01:53:48;;;;;;;1.17;0.93;;;18.60;83.40;;;;;;5072560;28;20428;-79
2023/06/28 01:56:19;;;;;;;0.77;0.77;;;18.60;82.70;;;;;;5072516;28;20448;-80
2023/06/28 01:59:01;;;;;;;0.87;0.87;;;18.60;82.50;;;;;;5072472;28;20980;-79
2023/06/28 02:01:30;;;;;;;3.50;1.00;;;18.50;83.70;;;;;;5072826;28;20441;-79
2023/06/28 02:04:02;;;;;;;1.10;1.07;;;18.40;85.10;;;;;;5072736;28;20810;-80
2023/06/28 02:06:35;;;;;;;3.93;1.07;;;18.20;85.40;;;;;;5072912;28;20465;-79
2023/06/28 02:09:09;;;;;;;2.30;0.90;;;18.10;86.80;;;;;;5075803;28;20483;-79
2023/06/28 02:11:38;;;;;;;1.87;0.77;;;18.00;86.90;;;;;;5076089;28;20417;-79
2023/06/28 02:14:11;;;;;;;0.80;0.73;;;18.00;87.20;;;;;;5076498;28;20463;-79
2023/06/28 02:16:42;;;;;;;0.90;0.90;;;17.90;88.10;;;;;;5076185;28;20791;-79
2023/06/28 02:19:13;;;;;;;2.90;1.40;;;17.80;88.10;;;;;;5076181;28;20476;-79
2023/06/28 02:21:46;;;;;;;0.77;0.77;;;17.90;88.00;;;;;;5075864;28;20913;-79
2023/06/28 02:24:18;;;;;;;2.27;0.90;;;17.90;87.50;;;;;;5075793;28;20429;-79
2023/06/28 02:26:47;;;;;;;1.40;1.30;;;18.00;87.30;;;;;;5075950;28;20477;-80
2023/06/28 02:29:29;;;;;;;1.80;1.20;;;18.00;87.10;;;;;;5075628;28;20476;-79
2023/06/28 02:32:02;;;;;;;1.17;0.90;;;17.90;86.80;;;;;;5075941;28;20432;-79
2023/06/28 02:34:36;;;;;;;2.50;0.90;;;17.90;87.60;;;;;;5075836;28;20826;-79
2023/06/28 02:37:13;;;;;;;1.57;1.10;;;17.90;87.40;;;;;;5075506;28;20867;-79
2023/06/28 02:39:55;;;;;;;1.27;0.90;;;18.00;87.80;;;;;;5075492;28;20884;-79
2023/06/28 02:42:35;;;;;;;4.83;1.00;;;18.00;87.60;;;;;;5075793;28;20862;-79
2023/06/28 02:45:03;;;;;;;1.90;0.77;;;18.10;86.80;;;;;;5075678;28;20421;-79
2023/06/28 02:47:43;;;;;;;1.00;0.90;;;18.10;87.70;;;;;;5075239;28;20854;-79
2023/06/28 02:50:17;;;;;;;2.50;0.80;;;18.10;87.80;;;;;;5075428;28;20782;-79
2023/06/28 02:52:52;;;;;;;1.37;1.17;;;18.10;88.10;;;;;;5075635;28;20835;-79
2023/06/28 02:55:23;;;;;;;0.70;0.70;;;18.10;88.20;;;;;;5075636;28;20763;-79
2023/06/28 02:57:52;;;;;;;0.83;0.83;;;18.10;88.00;;;;;;5075480;28;20818;-79
2023/06/28 03:00:22;;;;;;;1.40;1.27;;;18.10;88.00;;;;;;5075214;28;20460;-79
2023/06/28 03:02:50;;;;;;;0.80;0.80;;;18.10;88.50;;;;;;5075100;28;20894;-79
2023/06/28 03:05:20;;;;;;;0.90;0.90;;;18.10;88.00;;;;;;5075041;28;20820;-79
2023/06/28 03:07:53;;;;;;;0.60;0.60;;;18.10;88.60;;;;;;5075731;28;20996;-79
2023/06/28 03:10:27;;;;;;;0.97;0.83;;;18.10;87.80;;;;;;5074996;28;20904;-79
2023/06/28 03:12:56;;;;;;;1.37;1.10;;;18.10;88.00;;;;;;5074973;28;20802;-79
2023/06/28 03:15:26;;;;;;;1.73;1.00;;;18.10;87.80;;;;;;5075031;28;20806;-79
2023/06/28 03:17:56;;;;;;;1.60;1.40;;;18.10;88.60;;;;;;5074698;28;20972;-79
2023/06/28 03:20:27;;;;;;;1.07;0.87;;;18.10;87.70;;;;;;5074126;28;20786;-79
2023/06/28 03:22:56;;;;;;;1.67;1.07;;;18.10;87.70;;;;;;5074561;28;20480;-79
2023/06/28 03:25:28;;;;;;;0.80;0.80;;;18.00;88.00;;;;;;5075706;28;20956;-80
2023/06/28 03:27:59;;;;;;;1.20;0.90;;;17.90;88.10;;;;;;5074531;28;20998;-80
2023/06/28 03:30:28;;;;;;;2.30;1.40;;;17.90;88.50;;;;;;5074592;28;20853;-79
2023/06/28 03:33:00;;;;;;;2.97;1.00;;;17.90;88.90;;;;;;5074469;28;20945;-80
2023/06/28 03:35:29;;;;;;;4.37;1.00;;;17.90;89.00;;;;;;5074849;28;20447;-79
2023/06/28 03:38:00;;;;;;;2.63;0.93;;;17.80;89.40;;;;;;5074641;28;21006;-79
2023/06/28 03:40:41;;;;;;;1.27;1.03;;;17.80;89.80;;;;;;5074600;28;21004;-79
2023/06/28 03:43:20;;;;;;;1.80;1.30;;;17.80;90.00;;;;;;5074332;28;20935;-79
2023/06/28 03:45:53;;;;;;;1.30;1.00;;;17.80;90.20;;;;;;5074305;28;20937;-80
2023/06/28 03:48:22;;;;;;;1.40;1.30;;;17.80;90.10;;;;;;5074078;28;20976;-79
2023/06/28 03:50:52;;;;;;;0.90;0.90;;;17.80;90.20;;;;;;5074097;28;20448;-79
2023/06/28 03:53:23;;;;;;;1.60;1.13;;;17.70;90.40;;;;;;5074072;28;20925;-79
2023/06/28 03:55:54;;;;;;;4.57;1.43;;;17.70;90.50;;;;;;5074304;28;21200;-79
2023/06/28 03:58:23;;;;;;;1.00;0.90;;;17.70;90.50;;;;;;5073954;28;20964;-80
2023/06/28 04:00:55;;;;;;;1.00;1.00;;;17.60;90.60;;;;;;5073910;28;20967;-80
2023/06/28 04:03:26;;;;;;;4.03;1.10;;;17.60;90.70;;;;;;5074230;28;20907;-80
2023/06/28 04:05:59;;;;;;;1.20;0.80;;;17.50;90.80;;;;;;5073504;28;20948;-79
2023/06/28 04:08:32;;;;;;;1.30;1.20;;;17.50;90.60;;;;;;5073662;28;20979;-79
2023/06/28 04:11:08;;;;;;;2.13;1.10;;;17.30;90.90;;;;;;5073768;28;20997;-79
2023/06/28 04:13:36;;;;;;;2.03;1.70;;;17.30;90.90;;;;;;5073752;28;20912;-79
2023/06/28 04:16:06;;;;;;;1.17;1.10;;;17.20;91.10;;;;;;5073638;28;20948;-79
2023/06/28 04:18:37;;;;;;;1.77;0.90;;;17.10;91.30;;;;;;5073732;28;20461;-79
2023/06/28 04:21:08;;;;;;;2.60;1.13;;;17.10;91.50;;;;;;5073242;28;20455;-79
2023/06/28 04:23:38;;;;;;;3.47;1.43;;;17.10;91.70;;;;;;5073854;28;20425;-79
2023/06/28 04:26:08;;;;;;;2.80;1.13;;;17.20;91.50;;;;;;5073785;28;20453;-79
2023/06/28 04:28:38;;;;;;;1.53;1.13;;;17.20;91.40;;;;;;5073352;28;20485;-79
2023/06/28 04:31:07;;;;;;;1.13;1.00;;;17.20;91.40;;;;;;5073210;28;20940;-79
2023/06/28 04:33:36;;;;;;;3.10;1.10;;;17.30;91.40;;;;;;5073720;28;20441;-79
2023/06/28 04:36:11;;;;;;;0.87;0.87;;;17.40;91.40;;;;;;5073359;28;20460;-79
2023/06/28 04:38:50;;;;;;;0.90;0.90;;;17.40;91.30;;;;;;5073493;28;20496;-79
2023/06/28 04:41:24;;;;;;;1.30;1.10;;;17.40;91.10;;;;;;5073349;28;20436;-79
2023/06/28 04:44:01;;;;;;;1.00;0.90;;;17.40;91.10;;;;;;5073261;28;20436;-79
2023/06/28 04:46:32;;;;;;;0.97;0.93;;;17.40;91.00;;;;;;5073543;28;20428;-79
2023/06/28 04:49:06;;;;;;;2.80;1.00;;;17.50;91.10;;;;;;5073137;28;20467;-79
2023/06/28 04:51:38;;;;;;;2.90;1.20;;;17.60;91.10;;;;;;5073423;28;20482;-79
2023/06/28 04:54:10;;;;;;;4.00;1.27;;;17.70;90.90;;;;;;5073146;28;20418;-79
2023/06/28 04:56:41;;;;;;;1.90;1.00;;;17.80;90.80;;;;;;5073141;28;20425;-79
2023/06/28 04:59:13;;;;;;;1.10;0.80;;;18.00;90.60;;;;;;5073067;28;20468;-79
2023/06/28 05:01:42;;;;;;;1.10;0.90;;;18.20;90.70;;;;;;5073100;28;20433;-79
2023/06/28 05:04:12;;;;;;;1.47;0.97;;;18.30;90.60;;;;;;5073002;28;20484;-79
2023/06/28 05:06:45;;;;;;;1.00;1.00;;;18.40;90.50;;;;;;5072931;28;20502;-79
2023/06/28 05:09:16;;;;;;;3.70;1.43;;;18.50;90.50;;;;;;5073153;28;20464;-79
2023/06/28 05:11:49;;;;;;;1.37;1.20;;;18.60;90.30;;;;;;5073001;28;20495;-79
2023/06/28 05:14:19;;;;;;;2.50;1.30;;;18.60;90.10;;;;;;5073746;28;20432;-79
2023/06/28 05:16:50;;;;;;;1.33;1.00;;;18.70;90.20;;;;;;5072942;28;20923;-79
2023/06/28 05:19:25;;;;;;;1.30;0.90;;;18.70;90.20;;;;;;5073127;28;20838;-79
2023/06/28 05:21:55;;;;;;;2.30;1.37;;;18.80;90.30;;;;;;5072667;28;20487;-79
2023/06/28 05:24:25;;;;;;;4.60;1.17;;;18.80;90.30;;;;;;5072837;28;20451;-79
2023/06/28 05:26:56;;;;;;;1.37;0.93;;;18.90;90.30;;;;;;5072697;28;20444;-79
2023/06/28 05:29:26;;;;;;;2.37;1.20;;;19.00;90.10;;;;;;5072743;28;20472;-79
2023/06/28 05:31:57;;;;;;;1.43;0.77;;;19.10;90.20;;;;;;5072696;28;20453;-79
2023/06/28 05:34:29;;;;;;;1.00;0.90;;;19.20;90.10;;;;;;5073506;28;20457;-79
2023/06/28 05:37:14;;;;;;;5.30;1.33;;;19.10;90.40;;;;;;5072756;28;20452;-79
2023/06/28 05:39:44;;;;;;;2.30;1.23;;;19.20;90.40;;;;;;5072623;28;20975;-79
2023/06/28 05:42:17;;;;;;;1.20;1.03;;;19.30;90.30;;;;;;5073418;28;20502;-79
2023/06/28 05:44:46;;;;;;;2.37;1.07;;;19.20;89.70;;;;;;5076628;28;20433;-79
2023/06/28 05:47:18;;;;;;;2.30;1.70;;;19.30;90.10;;;;;;5076461;28;20476;-79
2023/06/28 05:52:45;;;;;;;2.87;0.87;;;19.40;90.00;;;;;;5074974;28;20469;-79
2023/06/28 05:55:17;;;;;;;1.60;0.80;;;19.50;89.90;;;;;;5076082;28;20502;-79
2023/06/28 05:57:51;;;;;;;1.47;1.37;;;19.50;88.90;;;;;;5076284;28;20464;-79
2023/06/28 06:00:25;;;;;;;1.10;1.03;;;19.50;89.10;;;;;;5076281;28;20428;-79
2023/06/28 06:02:55;;;;;;;1.00;0.90;;;19.50;89.00;;;;;;5076220;28;20420;-79
2023/06/28 06:05:26;;;;;;;1.00;0.83;;;19.50;88.60;;;;;;5076149;28;20448;-79
2023/06/28 06:08:12;;;;;;;1.97;1.40;;;19.60;89.30;;;;;;5075957;28;20558;-79
2023/06/28 06:10:41;;;;;;;1.03;0.97;;;19.70;89.30;;;;;;5076053;28;20428;-79
2023/06/28 06:13:22;;;;;;;;;;;;;;;;;;;;;
2023/06/28 06:15:53;;;;;;;4.70;1.20;;;20.00;88.60;;;;;;5074367;28;20444;-79
2023/06/28 06:18:29;;;;;;;1.13;1.00;;;20.10;88.30;;;;;;5075894;28;20461;-79
2023/06/28 06:20:58;;;;;;;1.47;0.90;;;20.20;87.20;;;;;;5075997;28;20425;-79
2023/06/28 06:23:30;;;;;;;0.90;0.90;;;20.30;86.10;;;;;;5075858;28;20440;-79
2023/06/28 06:26:05;;;;;;;2.80;1.63;;;20.40;86.10;;;;;;5075873;28;20445;-79
2023/06/28 06:28:35;;;;;;;2.80;1.07;;;20.50;86.10;;;;;;5075902;28;20489;-79
2023/06/28 06:31:03;;;;;;;4.83;1.20;;;20.60;85.70;;;;;;5076060;28;20429;-80
2023/06/28 06:33:35;;;;;;;1.20;0.90;;;20.60;85.10;;;;;;5076040;28;20444;-80
2023/06/28 06:36:07;;;;;;;1.40;0.90;;;20.80;85.70;;;;;;5075687;28;20466;-80
2023/06/28 06:38:37;;;;;;;2.57;1.03;;;20.70;83.80;;;;;;5075551;28;20491;-80
2023/06/28 06:41:11;;;;;;;1.47;0.90;;;20.80;84.30;;;;;;5075852;28;20576;-80
2023/06/28 06:43:48;;;;;;;1.40;0.90;;;21.00;84.30;;;;;;5076234;28;20455;-80
2023/06/28 06:46:27;;;;;;;5.77;1.40;;;21.10;83.80;;;;;;5075772;28;20432;-80
2023/06/28 06:48:59;;;;;;;1.80;0.93;;;21.20;83.60;;;;;;5075318;28;20491;-80
2023/06/28 06:51:32;;;;;;;1.47;0.70;;;21.30;83.40;;;;;;5075438;28;20432;-80
2023/06/28 06:54:01;;;;;;;1.20;1.20;;;21.20;83.40;;;;;;5075326;28;20440;-80
2023/06/28 06:56:31;;;;;;;1.20;0.87;;;21.20;82.10;;;;;;5075254;28;20455;-80
2023/06/28 06:59:01;;;;;;;1.10;0.70;;;21.10;82.00;;;;;;5075199;28;20533;-80
2023/06/28 07:01:35;;;;;;;0.80;0.80;;;21.10;82.40;;;;;;5075212;28;20464;-80
2023/06/28 07:04:07;;;;;;;1.13;0.80;;;20.90;82.90;;;;;;5075152;28;20437;-80
2023/06/28 07:06:36;;;;;;;1.47;0.90;;;20.90;82.10;;;;;;5075060;28;20451;-80
2023/06/28 07:09:09;;;;;;;2.97;0.83;;;20.80;82.70;;;;;;5074873;28;20492;-80
2023/06/28 07:11:41;;;;;;;1.17;1.07;;;20.70;83.00;;;;;;5075018;28;20464;-80
2023/06/28 07:14:14;;;;;;;1.43;0.70;;;20.80;83.70;;;;;;5075312;28;20425;-80
2023/06/28 07:16:48;;;;;;;1.07;0.60;;;20.90;82.90;;;;;;5074963;28;20490;-80
2023/06/28 07:19:19;;;;;;;1.10;1.00;;;21.00;83.40;;;;;;5074771;28;20554;-80
2023/06/28 07:21:48;;;;;;;6.13;0.77;;;21.00;82.80;;;;;;5075119;28;20515;-80
2023/06/28 07:24:17;;;;;;;2.40;1.23;;;20.80;82.70;;;;;;5074675;28;20451;-80
2023/06/28 07:26:50;;;;;;;0.70;0.60;;;20.80;83.90;;;;;;5074679;28;20444;-80
2023/06/28 07:29:20;;;;;;;1.63;0.83;;;20.90;83.80;;;;;;5074486;28;20488;-80
2023/06/28 07:31:53;;;;;;;0.93;0.90;;;20.90;83.70;;;;;;5074528;28;20441;-80
2023/06/28 07:34:22;;;;;;;0.73;0.73;;;20.90;83.00;;;;;;5074501;28;20502;-80
2023/06/28 07:36:51;;;;;;;0.70;0.70;;;21.00;83.00;;;;;;5074423;28;20448;-80
2023/06/28 07:39:31;;;;;;;3.23;0.77;;;21.00;82.50;;;;;;5074463;28;20461;-80
2023/06/28 07:42:02;;;;;;;2.50;0.80;;;20.90;82.00;;;;;;5074318;28;20429;-80
2023/06/28 07:44:32;;;;;;;1.53;1.00;;;20.80;81.20;;;;;;5074736;28;20956;-80
2023/06/28 07:47:02;;;;;;;0.90;0.90;;;20.70;81.20;;;;;;5074434;28;20495;-80
2023/06/28 07:49:33;;;;;;;3.03;1.20;;;20.70;82.50;;;;;;5074387;28;20507;-79
2023/06/28 07:52:06;;;;;;;3.20;1.13;;;20.70;83.20;;;;;;5076604;28;20453;-80
2023/06/28 07:54:39;;;;;;;1.27;0.67;;;20.70;82.90;;;;;;5074125;28;20436;-80
2023/06/28 07:57:09;;;;;;;0.70;0.70;;;20.80;82.50;;;;;;5074125;28;20482;-78
2023/06/28 07:59:39;;;;;;;1.07;0.90;;;20.80;82.10;;;;;;5074228;28;20460;-80
2023/06/28 08:02:08;;;;;;;2.30;1.10;;;20.80;82.40;;;;;;5073984;28;20435;-80
2023/06/28 08:04:37;;;;;;;5.37;1.03;;;20.80;82.10;;;;;;5074407;28;20449;-79
2023/06/28 08:07:09;;;;;;;1.00;0.93;;;20.90;81.60;;;;;;5073973;28;20452;-80
2023/06/28 08:09:39;;;;;;;0.97;0.80;;;21.00;82.00;;;;;;5073929;28;20571;-80
2023/06/28 08:12:11;;;;;;;0.80;0.70;;;21.10;81.70;;;;;;5074281;28;20451;-79
2023/06/28 08:14:46;;;;;;;0.80;0.80;;;21.20;81.60;;;;;;5073847;28;20424;-80
2023/06/28 08:17:15;;;;;;;0.97;0.87;;;21.20;80.30;;;;;;5073710;28;20428;-80
2023/06/28 08:19:46;;;;;;;0.80;0.80;;;21.20;80.30;;;;;;5073615;28;20464;-80
2023/06/28 08:22:17;;;;;;;1.30;1.20;;;21.20;81.70;;;;;;5073435;28;20491;-79
2023/06/28 08:24:48;;;;;;;2.20;0.90;;;21.10;81.90;;;;;;5073925;28;20437;-79
2023/06/28 08:27:34;;;;;;;1.10;1.00;;;21.10;82.50;;;;;;5073577;28;20927;-79
2023/06/28 08:30:06;;;;;;;3.37;1.13;;;21.10;81.10;;;;;;5072965;28;20484;-79
2023/06/28 08:32:36;;;;;;;1.07;1.00;;;21.00;81.50;;;;;;5073427;28;20429;-80
2023/06/28 08:35:12;;;;;;;1.30;0.87;;;21.00;81.50;;;;;;5073426;28;20456;-80
2023/06/28 08:37:46;;;;;;;1.00;0.70;;;21.00;81.60;;;;;;5073352;28;20471;-79
2023/06/28 08:40:16;;;;;;;0.90;0.80;;;21.00;81.50;;;;;;5073427;28;20439;-79
2023/06/28 08:42:49;;;;;;;2.47;0.93;;;20.90;81.40;;;;;;5073329;28;20443;-80
2023/06/28 08:45:21;;;;;;;1.70;0.80;;;21.00;81.30;;;;;;5073336;28;20515;-79
2023/06/28 08:47:52;;;;;;;5.00;1.47;;;21.10;80.80;;;;;;5073145;28;20474;-79
2023/06/28 08:50:30;;;;;;;2.50;0.83;;;21.10;81.00;;;;;;5073137;28;20456;-80
2023/06/28 08:52:58;;;;;;;0.70;0.70;;;21.20;81.30;;;;;;5073145;28;20458;-79
2023/06/28 08:55:27;;;;;;;2.03;0.80;;;21.10;81.00;;;;;;5073074;28;20452;-80
2023/06/28 08:57:59;;;;;;;0.80;0.80;;;21.20;81.90;;;;;;5073353;28;20470;-80
2023/06/28 09:00:30;;;;;;;3.63;0.87;;;21.30;81.30;;;;;;5073119;28;20432;-79
2023/06/28 09:03:00;;;;;;;1.23;0.80;;;21.50;81.20;;;;;;5073086;28;20507;-80
2023/06/28 09:05:38;;;;;;;1.60;1.20;;;21.70;81.00;;;;;;5072978;28;20443;-80
2023/06/28 09:08:08;;;;;;;1.60;1.33;;;21.90;80.70;;;;;;5072837;28;20468;-80
2023/06/28 09:10:40;;;;;;;2.00;1.07;;;22.20;80.30;;;;;;5073052;28;20433;-80
2023/06/28 09:13:11;;;;;;;1.10;0.90;;;22.50;80.90;;;;;;5073065;28;20440;-80
2023/06/28 09:15:42;;;;;;;0.80;0.80;;;22.70;79.20;;;;;;5072967;28;20208;-80
2023/06/28 09:18:19;;;;;;;0.80;0.70;;;22.90;78.30;;;;;;5075402;28;20507;-80
2023/06/28 09:21:07;;;;;;;0.80;0.80;;;23.00;78.00;;;;;;5077168;28;20222;-80
2023/06/28 09:24:00;;;;;;;3.03;1.20;;;23.20;77.80;;;;;;5077114;28;20200;-80
2023/06/28 09:26:35;;;;;;;1.30;0.98;;;23.20;77.40;;;;;;5076795;28;20201;-80
2023/06/28 09:29:14;;;;;;;1.23;0.90;;;23.30;76.80;;;;;;5076857;28;20271;-80
2023/06/28 09:31:51;;;;;;;0.70;0.70;;;23.30;76.00;;;;;;5078050;28;20597;-80
2023/06/28 09:34:27;;;;;;;0.97;0.97;;;23.20;77.00;;;;;;5076834;28;20193;-80
2023/06/28 09:37:12;;;;;;;4.15;0.95;;;23.10;76.40;;;;;;5077111;28;20201;-80
2023/06/28 09:39:42;;;;;;;0.93;0.80;;;23.10;76.80;;;;;;5077234;28;20218;-80
2023/06/28 09:42:13;;;;;;;1.02;0.93;;;23.10;76.80;;;;;;5076630;28;20206;-80
2023/06/28 09:44:56;;;;;;;2.85;0.85;;;23.20;77.80;;;;;;5077021;28;20186;-80
2023/06/28 09:47:33;;;;;;;0.70;0.70;;;23.30;76.80;;;;;;5076531;28;20194;-80
2023/06/28 09:50:12;;;;;;;1.90;0.90;;;23.40;76.70;;;;;;5076925;28;20301;-80
2023/06/28 09:52:45;;;;;;;0.93;0.93;;;23.50;76.00;;;;;;5077084;28;20244;-80
2023/06/28 09:55:15;;;;;;;1.83;0.80;;;23.70;77.10;;;;;;5076474;28;20205;-80
2023/06/28 09:57:46;;;;;;;0.80;0.80;;;23.90;75.80;;;;;;5076274;28;20228;-80
2023/06/28 10:00:17;;;;;;;1.83;1.00;;;24.00;74.50;;;;;;5076396;28;20605;-80
2023/06/28 10:02:49;;;;;;;3.15;1.02;;;24.10;74.30;;;;;;5076259;28;20195;-80
2023/06/28 10:05:28;;;;;;;1.02;0.93;;;24.00;73.00;;;;;;5076313;28;20190;-80
2023/06/28 10:07:59;;;;;;;2.50;1.10;;;24.10;74.20;;;;;;5076147;28;20222;-80
2023/06/28 10:10:34;;;;;;;1.35;0.88;;;24.20;73.70;;;;;;5076134;28;20214;-80
2023/06/28 10:13:05;;;;;;;1.15;0.95;;;24.30;74.00;;;;;;5076561;28;20218;-80
2023/06/28 10:15:44;;;;;;;0.80;0.80;;;24.30;73.40;;;;;;5076086;28;20186;-80
2023/06/28 10:18:16;;;;;;;4.75;0.98;;;24.20;72.20;;;;;;5075963;28;20591;-80
2023/06/28 10:20:47;;;;;;;1.40;0.82;;;24.30;72.90;;;;;;5076027;28;20190;-81
2023/06/28 10:23:17;;;;;;;1.48;0.90;;;24.00;73.70;;;;;;5075973;28;20260;-80
2023/06/28 10:25:50;;;;;;;1.77;0.90;;;24.10;73.10;;;;;;5076298;28;20190;-80
2023/06/28 10:28:28;;;;;;;1.40;0.80;;;24.30;73.70;;;;;;5075601;28;20295;-80
2023/06/28 10:30:58;;;;;;;2.90;1.10;;;24.70;72.40;;;;;;5076118;28;20197;-80
2023/06/28 10:33:32;;;;;;;0.70;0.70;;;25.00;71.60;;;;;;5075702;28;20241;-80
2023/06/28 10:36:03;;;;;;;2.78;0.90;;;25.20;71.60;;;;;;5075750;28;20235;-80
2023/06/28 10:38:36;;;;;;;0.73;0.73;;;25.40;70.30;;;;;;5075610;28;20222;-80
2023/06/28 10:41:09;;;;;;;1.20;1.10;;;25.60;70.30;;;;;;5075985;28;20194;-80
2023/06/28 10:43:54;;;;;;;1.55;0.80;;;25.50;71.70;;;;;;5075527;28;20194;-80
2023/06/28 10:46:25;;;;;;;0.80;0.80;;;25.30;70.00;;;;;;5075556;28;20209;-80
2023/06/28 10:48:59;;;;;;;1.98;1.00;;;25.20;72.00;;;;;;5075361;28;20226;-80
2023/06/28 10:51:28;;;;;;;0.80;0.80;;;25.30;71.80;;;;;;5075414;28;20239;-80
2023/06/28 10:54:08;;;;;;;1.40;1.20;;;25.40;70.30;;;;;;5075375;28;20213;-80
2023/06/28 10:56:43;;;;;;;2.50;0.80;;;25.50;68.90;;;;;;5075379;28;20197;-80
2023/06/28 10:59:11;;;;;;;1.10;1.10;;;25.40;69.90;;;;;;5075229;28;20249;-80
2023/06/28 11:01:41;;;;;;;0.90;0.90;;;25.60;70.50;;;;;;5075218;28;20277;-81
2023/06/28 11:04:21;;;;;;;0.93;0.80;;;25.90;68.80;;;;;;5074871;28;20637;-81
2023/06/28 11:06:49;;;;;;;0.80;0.80;;;26.10;68.20;;;;;;5074812;28;20243;-81
2023/06/28 11:09:19;;;;;;;1.05;0.95;;;26.20;67.40;;;;;;5090787;28;20222;-82
2023/06/28 11:12:04;;;;;;;0.80;0.80;;;26.60;66.70;;;;;;5092185;28;20196;-81
2023/06/28 11:14:35;;;;;;;0.80;0.80;;;26.70;66.00;;;;;;5083660;28;20205;-80
2023/06/28 11:17:07;;;;;;;1.60;1.00;;;26.40;68.20;;;;;;5093788;28;20231;-80
2023/06/28 11:19:36;;;;;;;0.82;0.82;;;26.10;68.20;;;;;;5093953;28;20224;-80
2023/06/28 11:22:05;;;;;;;0.75;0.75;;;25.80;68.40;;;;;;5093801;28;20631;-81
2023/06/28 11:24:45;;;;;;;0.95;0.90;;;25.30;69.60;;;;;;5095189;28;20206;-81
2023/06/28 11:27:15;;;;;;;5.03;0.93;;;25.20;70.70;;;;;;5094947;28;20207;-81
2023/06/28 11:30:04;;;;;;;0.80;0.80;;;25.20;71.90;;;;;;5095064;28;20229;-81
2023/06/28 11:32:32;;;;;;;3.03;1.25;;;25.30;69.10;;;;;;5090425;28;20274;-81
2023/06/28 11:35:03;;;;;;;0.90;0.90;;;25.20;68.90;;;;;;5094785;28;20293;-81
2023/06/28 11:37:32;;;;;;;0.90;0.90;;;25.20;69.50;;;;;;5094695;28;20182;-81
2023/06/28 11:40:00;;;;;;;0.80;0.80;;;25.00;69.10;;;;;;5094435;28;20254;-81
2023/06/28 11:42:28;;;;;;;0.90;0.90;;;25.10;70.40;;;;;;5094951;28;20284;-81
2023/06/28 11:44:55;;;;;;;5.85;1.00;;;25.10;70.70;;;;;;5094639;28;20205;-81
2023/06/28 11:47:24;;;;;;;1.67;0.90;;;25.10;69.70;;;;;;5094475;28;20204;-81
2023/06/28 11:49:52;;;;;;;0.90;0.90;;;25.20;70.10;;;;;;5094769;28;20698;-81
2023/06/28 11:52:21;;;;;;;1.00;1.00;;;25.20;70.30;;;;;;5094759;28;20266;-81
2023/06/28 11:54:53;;;;;;;1.95;1.33;;;25.20;71.10;;;;;;5094403;28;20207;-81
2023/06/28 11:57:21;;;;;;;1.45;0.95;;;25.30;69.30;;;;;;5094338;28;20751;-80
2023/06/28 11:59:52;;;;;;;4.07;1.10;;;25.20;69.20;;;;;;5094328;28;20193;-80
2023/06/28 12:02:19;;;;;;;0.98;0.88;;;25.10;69.30;;;;;;5094838;28;20189;-81
2023/06/28 12:04:59;;;;;;;0.98;0.88;;;25.10;69.60;;;;;;5094202;28;20216;-81
2023/06/28 12:07:29;;;;;;;1.45;1.00;;;25.10;69.10;;;;;;5094166;28;20238;-81
2023/06/28 12:09:59;;;;;;;1.35;1.10;;;25.00;69.20;;;;;;5093977;28;20229;-81
2023/06/28 12:12:38;;;;;;;1.08;0.80;;;24.90;69.70;;;;;;5094198;28;20303;-81
2023/06/28 12:15:07;;;;;;;1.70;0.80;;;24.70;69.60;;;;;;5091560;28;20195;-80
2023/06/28 12:17:41;;;;;;;1.23;1.05;;;24.60;70.80;;;;;;5093679;28;20239;-80
2023/06/28 12:20:11;;;;;;;1.00;1.00;;;24.60;70.30;;;;;;5094043;28;20205;-80
2023/06/28 12:22:44;;;;;;;1.02;0.90;;;24.50;71.10;;;;;;5081803;28;20228;-80
2023/06/28 12:25:12;;;;;;;1.25;0.70;;;24.60;71.50;;;;;;5093309;28;20568;-81
2023/06/28 12:27:41;;;;;;;1.52;1.35;;;24.50;71.00;;;;;;5094092;28;20710;-81
2023/06/28 12:30:14;;;;;;;1.48;1.05;;;24.60;71.30;;;;;;5093697;28;20260;-81
2023/06/28 12:32:46;;;;;;;0.90;0.90;;;24.70;70.30;;;;;;5094355;28;20185;-81
2023/06/28 12:35:24;;;;;;;2.88;1.23;;;24.70;70.80;;;;;;5093723;28;20192;-81
2023/06/28 12:37:57;;;;;;;4.88;1.13;;;24.70;71.20;;;;;;5093601;28;20228;-80
2023/06/28 12:40:29;;;;;;;0.80;0.80;;;24.80;71.60;;;;;;5093659;28;20212;-81
2023/06/28 12:43:10;;;;;;;0.95;0.82;;;24.80;72.90;;;;;;5093562;28;20236;-81
2023/06/28 12:45:45;;;;;;;3.45;0.90;;;24.80;71.70;;;;;;5093680;28;20682;-80
2023/06/28 12:48:16;;;;;;;0.98;0.98;;;24.80;70.90;;;;;;5093529;28;20223;-81
2023/06/28 12:50:45;;;;;;;0.77;0.77;;;24.80;72.00;;;;;;5093629;28;20292;-80
2023/06/28 12:53:14;;;;;;;1.08;0.98;;;24.80;71.40;;;;;;5093439;28;20294;-81
2023/06/28 12:55:42;;;;;;;0.90;0.85;;;24.70;70.20;;;;;;5093357;28;20201;-81
2023/06/28 12:58:11;;;;;;;1.27;1.17;;;24.70;70.60;;;;;;5093107;28;20270;-81
2023/06/28 13:00:44;;;;;;;2.70;0.70;;;24.60;70.40;;;;;;5093742;28;20199;-81
2023/06/28 13:03:12;;;;;;;1.00;0.95;;;24.40;70.60;;;;;;5093324;28;20217;-81
2023/06/28 13:05:40;;;;;;;2.35;1.13;;;24.30;70.40;;;;;;5093356;28;20764;-81
2023/06/28 13:08:11;;;;;;;1.02;0.88;;;24.10;71.60;;;;;;5093361;28;20225;-81
2023/06/28 13:10:41;;;;;;;0.80;0.80;;;24.00;70.60;;;;;;5093390;28;20714;-81
2023/06/28 13:13:10;;;;;;;1.42;1.00;;;24.00;70.90;;;;;;5093292;28;20197;-81
2023/06/28 13:15:38;;;;;;;0.73;0.73;;;23.90;71.70;;;;;;5093204;28;20590;-81
2023/06/28 13:18:06;;;;;;;0.85;0.80;;;23.80;71.60;;;;;;5093134;28;20270;-81